sensor_id;sensor_type;location;lat;lon;timestamp;pressure;altitude;pressure_sealevel;temperature;humidity
64086;BME280;50333;47.436;21.390;2022-12-24T00:01:05;100130.84;;;8.60;86.77
64086;BME280;50333;47.436;21.390;2022-12-24T00:03:35;100124.97;;;8.80;87.52
64086;BME280;50333;47.436;21.390;2022-12-24T00:06:07;100126.88;;;9.05;85.22
64086;BME280;50333;47.436;21.390;2022-12-24T00:08:36;100125.69;;;8.65;86.44
64086;BME280;50333;47.436;21.390;2022-12-24T00:11:03;100129.84;;;8.66;87.01
64086;BME280;50333;47.436;21.390;2022-12-24T00:13:31;100126.72;;;8.64;87.18
64086;BME280;50333;47.436;21.390;2022-12-24T00:15:59;100129.69;;;8.41;87.31
64086;BME280;50333;47.436;21.390;2022-12-24T00:18:27;100134.28;;;8.28;88.90
64086;BME280;50333;47.436;21.390;2022-12-24T00:20:55;100125.69;;;7.85;91.57
64086;BME280;50333;47.436;21.390;2022-12-24T00:23:23;100117.72;;;8.35;89.89
64086;BME280;50333;47.436;21.390;2022-12-24T00:25:51;100105.91;;;8.54;87.22
64086;BME280;50333;47.436;21.390;2022-12-24T00:28:20;100093.56;;;8.39;88.01
64086;BME280;50333;47.436;21.390;2022-12-24T00:30:48;100100.44;;;8.56;87.11
64086;BME280;50333;47.436;21.390;2022-12-24T00:33:16;100106.28;;;7.93;89.76
64086;BME280;50333;47.436;21.390;2022-12-24T00:35:51;100107.38;;;8.02;89.59
64086;BME280;50333;47.436;21.390;2022-12-24T00:38:19;100108.41;;;7.64;91.26
64086;BME280;50333;47.436;21.390;2022-12-24T00:40:47;100107.00;;;7.83;91.39
64086;BME280;50333;47.436;21.390;2022-12-24T00:43:15;100104.47;;;7.93;89.80
64086;BME280;50333;47.436;21.390;2022-12-24T00:45:42;100103.94;;;7.27;93.02
64086;BME280;50333;47.436;21.390;2022-12-24T00:48:10;100098.31;;;7.40;93.99
64086;BME280;50333;47.436;21.390;2022-12-24T00:50:38;100084.31;;;7.68;91.76
64086;BME280;50333;47.436;21.390;2022-12-24T00:53:06;100088.84;;;7.51;93.61
64086;BME280;50333;47.436;21.390;2022-12-24T00:55:33;100093.56;;;7.91;91.33
64086;BME280;50333;47.436;21.390;2022-12-24T00:58:01;100089.69;;;7.29;92.34
64086;BME280;50333;47.436;21.390;2022-12-24T01:00:29;100081.69;;;7.63;91.53
64086;BME280;50333;47.436;21.390;2022-12-24T01:02:57;100082.75;;;7.40;91.99
64086;BME280;50333;47.436;21.390;2022-12-24T01:05:25;100082.00;;;7.12;93.84
64086;BME280;50333;47.436;21.390;2022-12-24T01:07:53;100083.94;;;7.00;96.70
64086;BME280;50333;47.436;21.390;2022-12-24T01:10:21;100082.75;;;6.86;95.18
64086;BME280;50333;47.436;21.390;2022-12-24T01:12:49;100088.31;;;6.72;95.90
64086;BME280;50333;47.436;21.390;2022-12-24T01:15:16;100090.84;;;6.67;99.66
64086;BME280;50333;47.436;21.390;2022-12-24T01:17:44;100099.38;;;6.46;100.00
64086;BME280;50333;47.436;21.390;2022-12-24T01:20:15;100098.84;;;6.44;100.00
64086;BME280;50333;47.436;21.390;2022-12-24T01:22:46;100106.53;;;6.38;100.00
64086;BME280;50333;47.436;21.390;2022-12-24T01:25:15;100104.03;;;6.88;99.98
64086;BME280;50333;47.436;21.390;2022-12-24T01:27:43;100105.34;;;6.68;99.31
64086;BME280;50333;47.436;21.390;2022-12-24T01:30:12;100094.16;;;6.85;99.22
64086;BME280;50333;47.436;21.390;2022-12-24T01:32:41;100109.25;;;6.93;99.71
64086;BME280;50333;47.436;21.390;2022-12-24T01:35:09;100102.41;;;6.82;98.97
64086;BME280;50333;47.436;21.390;2022-12-24T01:37:37;100108.06;;;6.78;100.00
64086;BME280;50333;47.436;21.390;2022-12-24T01:40:07;100115.31;;;6.98;99.90
64086;BME280;50333;47.436;21.390;2022-12-24T01:43:16;100120.19;;;6.95;98.23
64086;BME280;50333;47.436;21.390;2022-12-24T01:45:54;100114.66;;;7.13;97.46
64086;BME280;50333;47.436;21.390;2022-12-24T01:48:42;100119.38;;;7.16;96.94
64086;BME280;50333;47.436;21.390;2022-12-24T01:51:16;100111.53;;;7.11;97.40
64086;BME280;50333;47.436;21.390;2022-12-24T01:53:48;100110.72;;;7.33;96.43
64086;BME280;50333;47.436;21.390;2022-12-24T01:56:19;100096.16;;;7.59;95.23
64086;BME280;50333;47.436;21.390;2022-12-24T01:58:52;100106.66;;;7.42;94.62
64086;BME280;50333;47.436;21.390;2022-12-24T02:01:23;100098.03;;;7.64;93.66
64086;BME280;50333;47.436;21.390;2022-12-24T02:03:52;100100.66;;;7.69;92.93
64086;BME280;50333;47.436;21.390;2022-12-24T02:06:20;100094.63;;;7.31;95.43
64086;BME280;50333;47.436;21.390;2022-12-24T02:08:49;100079.59;;;7.06;96.13
64086;BME280;50333;47.436;21.390;2022-12-24T02:11:19;100082.88;;;6.96;96.85
64086;BME280;50333;47.436;21.390;2022-12-24T02:13:56;100067.91;;;7.03;97.06
64086;BME280;50333;47.436;21.390;2022-12-24T02:25:11;100021.56;;;6.57;99.16
64086;BME280;50333;47.436;21.390;2022-12-24T02:28:15;100003.63;;;7.05;96.21
64086;BME280;50333;47.436;21.390;2022-12-24T02:30:58;99995.91;;;7.10;95.75
64086;BME280;50333;47.436;21.390;2022-12-24T02:33:42;100008.44;;;7.18;97.25
64086;BME280;50333;47.436;21.390;2022-12-24T02:36:24;100013.81;;;7.12;96.85
64086;BME280;50333;47.436;21.390;2022-12-24T02:39:02;100010.41;;;7.06;98.03
64086;BME280;50333;47.436;21.390;2022-12-24T02:41:33;100033.37;;;7.25;96.91
64086;BME280;50333;47.436;21.390;2022-12-24T02:44:24;100027.50;;;7.34;96.16
64086;BME280;50333;47.436;21.390;2022-12-24T02:46:54;100015.72;;;6.94;97.19
64086;BME280;50333;47.436;21.390;2022-12-24T02:49:23;100012.59;;;7.20;96.50
64086;BME280;50333;47.436;21.390;2022-12-24T02:51:51;100029.78;;;7.31;95.84
64086;BME280;50333;47.436;21.390;2022-12-24T02:54:18;100035.34;;;7.77;93.70
64086;BME280;50333;47.436;21.390;2022-12-24T03:02:20;100036.31;;;7.06;95.89
64086;BME280;50333;47.436;21.390;2022-12-24T03:13:07;100008.19;;;7.20;98.04
64086;BME280;50333;47.436;21.390;2022-12-24T03:15:37;100010.53;;;7.22;96.44
64086;BME280;50333;47.436;21.390;2022-12-24T03:18:09;100007.19;;;6.94;98.39
64086;BME280;50333;47.436;21.390;2022-12-24T03:20:44;100001.94;;;7.16;98.24
64086;BME280;50333;47.436;21.390;2022-12-24T03:23:13;99999.25;;;7.06;98.30
64086;BME280;50333;47.436;21.390;2022-12-24T03:25:43;99994.28;;;6.99;98.47
64086;BME280;50333;47.436;21.390;2022-12-24T03:28:14;99981.34;;;7.04;97.57
64086;BME280;50333;47.436;21.390;2022-12-24T03:30:45;99984.91;;;6.98;98.26
64086;BME280;50333;47.436;21.390;2022-12-24T03:33:15;99974.91;;;6.79;99.12
64086;BME280;50333;47.436;21.390;2022-12-24T03:35:43;99961.03;;;6.91;98.54
64086;BME280;50333;47.436;21.390;2022-12-24T03:38:11;99964.09;;;6.88;100.00
64086;BME280;50333;47.436;21.390;2022-12-24T03:40:45;99955.75;;;6.80;99.33
64086;BME280;50333;47.436;21.390;2022-12-24T03:43:13;99984.78;;;6.83;100.00
64086;BME280;50333;47.436;21.390;2022-12-24T03:45:41;100003.47;;;6.85;99.57
64086;BME280;50333;47.436;21.390;2022-12-24T03:48:08;99989.38;;;7.03;98.62
64086;BME280;50333;47.436;21.390;2022-12-24T03:50:37;99998.97;;;7.02;98.37
64086;BME280;50333;47.436;21.390;2022-12-24T03:53:05;99998.38;;;6.95;98.55
64086;BME280;50333;47.436;21.390;2022-12-24T03:55:32;99995.47;;;6.86;99.26
64086;BME280;50333;47.436;21.390;2022-12-24T03:58:00;99998.47;;;7.05;98.03
64086;BME280;50333;47.436;21.390;2022-12-24T04:00:28;100001.59;;;7.07;98.32
64086;BME280;50333;47.436;21.390;2022-12-24T04:02:56;99990.72;;;7.10;97.74
64086;BME280;50333;47.436;21.390;2022-12-24T04:05:24;99977.91;;;7.26;97.46
64086;BME280;50333;47.436;21.390;2022-12-24T04:07:51;99975.94;;;6.78;99.09
64086;BME280;50333;47.436;21.390;2022-12-24T04:10:19;99980.88;;;7.07;98.45
64086;BME280;50333;47.436;21.390;2022-12-24T04:12:47;99989.38;;;7.03;98.13
64086;BME280;50333;47.436;21.390;2022-12-24T04:15:15;100007.03;;;7.06;98.43
64086;BME280;50333;47.436;21.390;2022-12-24T04:17:43;100004.97;;;7.40;95.75
64086;BME280;50333;47.436;21.390;2022-12-24T04:20:11;100014.13;;;7.48;95.66
64086;BME280;50333;47.436;21.390;2022-12-24T04:22:39;100004.97;;;7.40;96.29
64086;BME280;50333;47.436;21.390;2022-12-24T04:25:09;100015.69;;;7.16;97.66
64086;BME280;50333;47.436;21.390;2022-12-24T04:27:36;100005.41;;;7.27;95.17
64086;BME280;50333;47.436;21.390;2022-12-24T04:30:06;100009.50;;;7.23;96.13
64086;BME280;50333;47.436;21.390;2022-12-24T04:32:34;100010.88;;;7.30;96.48
64086;BME280;50333;47.436;21.390;2022-12-24T04:35:02;100011.66;;;7.31;97.45
64086;BME280;50333;47.436;21.390;2022-12-24T04:37:29;100002.94;;;7.42;96.17
64086;BME280;50333;47.436;21.390;2022-12-24T04:39:58;99989.38;;;7.03;98.37
64086;BME280;50333;47.436;21.390;2022-12-24T04:42:26;99991.66;;;7.64;96.89
64086;BME280;50333;47.436;21.390;2022-12-24T04:44:53;99992.22;;;7.33;96.89
64086;BME280;50333;47.436;21.390;2022-12-24T04:47:21;99989.06;;;7.64;95.69
64086;BME280;50333;47.436;21.390;2022-12-24T04:49:53;99983.81;;;7.53;96.78
64086;BME280;50333;47.436;21.390;2022-12-24T04:52:21;99979.69;;;7.63;95.37
64086;BME280;50333;47.436;21.390;2022-12-24T04:54:49;99981.13;;;7.43;96.66
64086;BME280;50333;47.436;21.390;2022-12-24T04:57:16;99982.28;;;7.63;96.23
64086;BME280;50333;47.436;21.390;2022-12-24T04:59:44;99972.44;;;7.60;95.70
64086;BME280;50333;47.436;21.390;2022-12-24T05:02:12;99972.34;;;7.44;97.18
64086;BME280;50333;47.436;21.390;2022-12-24T05:04:40;99962.91;;;7.70;96.56
64086;BME280;50333;47.436;21.390;2022-12-24T05:07:08;99963.50;;;7.88;94.82
64086;BME280;50333;47.436;21.390;2022-12-24T05:09:36;99964.34;;;7.51;96.06
64086;BME280;50333;47.436;21.390;2022-12-24T05:12:04;99952.16;;;7.51;97.02
64086;BME280;50333;47.436;21.390;2022-12-24T05:14:31;99957.53;;;7.87;95.05
64086;BME280;50333;47.436;21.390;2022-12-24T05:16:59;99960.16;;;7.87;94.74
64086;BME280;50333;47.436;21.390;2022-12-24T05:19:28;99959.16;;;7.99;94.45
64086;BME280;50333;47.436;21.390;2022-12-24T05:21:56;99970.03;;;7.96;94.03
64086;BME280;50333;47.436;21.390;2022-12-24T05:24:42;99969.03;;;7.59;95.80
64086;BME280;50333;47.436;21.390;2022-12-24T05:27:29;99971.00;;;7.79;94.72
64086;BME280;50333;47.436;21.390;2022-12-24T05:29:59;99985.59;;;7.96;93.87
64086;BME280;50333;47.436;21.390;2022-12-24T05:32:26;99993.22;;;8.12;92.92
64086;BME280;50333;47.436;21.390;2022-12-24T05:34:55;99986.25;;;8.28;91.82
64086;BME280;50333;47.436;21.390;2022-12-24T05:37:22;99972.91;;;7.99;92.60
64086;BME280;50333;47.436;21.390;2022-12-24T05:39:58;99978.37;;;7.98;92.92
64086;BME280;50333;47.436;21.390;2022-12-24T05:42:26;99986.16;;;8.03;91.92
64086;BME280;50333;47.436;21.390;2022-12-24T05:44:54;99996.59;;;8.13;92.44
64086;BME280;50333;47.436;21.390;2022-12-24T05:47:21;99998.09;;;8.04;92.72
64086;BME280;50333;47.436;21.390;2022-12-24T05:49:52;100003.66;;;8.28;91.67
64086;BME280;50333;47.436;21.390;2022-12-24T05:52:20;99996.16;;;8.31;90.17
64086;BME280;50333;47.436;21.390;2022-12-24T05:54:47;100002.69;;;7.86;92.81
64086;BME280;50333;47.436;21.390;2022-12-24T05:57:15;100012.75;;;8.30;91.40
64086;BME280;50333;47.436;21.390;2022-12-24T05:59:43;100010.13;;;8.25;91.28
64086;BME280;50333;47.436;21.390;2022-12-24T06:02:10;100013.34;;;8.43;90.00
64086;BME280;50333;47.436;21.390;2022-12-24T06:04:38;100018.22;;;8.24;90.54
64086;BME280;50333;47.436;21.390;2022-12-24T06:07:06;100015.31;;;8.15;91.46
64086;BME280;50333;47.436;21.390;2022-12-24T06:09:34;100019.22;;;8.23;91.64
64086;BME280;50333;47.436;21.390;2022-12-24T06:12:02;100018.69;;;8.16;92.75
64086;BME280;50333;47.436;21.390;2022-12-24T06:14:30;100028.16;;;7.89;93.50
64086;BME280;50333;47.436;21.390;2022-12-24T06:16:57;100030.87;;;8.10;92.69
64086;BME280;50333;47.436;21.390;2022-12-24T06:19:25;100036.91;;;8.26;92.39
64086;BME280;50333;47.436;21.390;2022-12-24T06:21:53;100035.84;;;8.22;91.85
64086;BME280;50333;47.436;21.390;2022-12-24T06:24:21;100034.09;;;8.38;90.95
64086;BME280;50333;47.436;21.390;2022-12-24T06:26:48;100048.22;;;8.52;90.70
64086;BME280;50333;47.436;21.390;2022-12-24T06:29:17;100038.41;;;8.70;89.00
64086;BME280;50333;47.436;21.390;2022-12-24T06:31:45;100038.34;;;8.54;89.77
64086;BME280;50333;47.436;21.390;2022-12-24T06:34:13;100028.50;;;8.61;89.64
64086;BME280;50333;47.436;21.390;2022-12-24T06:36:40;100026.44;;;8.68;89.56
64086;BME280;50333;47.436;21.390;2022-12-24T06:39:08;100024.75;;;8.42;90.21
64086;BME280;50333;47.436;21.390;2022-12-24T06:41:36;100027.41;;;8.47;89.98
64086;BME280;50333;47.436;21.390;2022-12-24T06:44:03;100027.78;;;8.92;88.10
64086;BME280;50333;47.436;21.390;2022-12-24T06:46:31;100041.53;;;8.82;87.16
64086;BME280;50333;47.436;21.390;2022-12-24T06:48:59;100045.66;;;8.62;89.04
64086;BME280;50333;47.436;21.390;2022-12-24T06:51:27;100044.50;;;8.38;90.10
64086;BME280;50333;47.436;21.390;2022-12-24T06:53:55;100051.84;;;8.56;90.71
64086;BME280;50333;47.436;21.390;2022-12-24T06:56:23;100052.72;;;8.87;88.31
64086;BME280;50333;47.436;21.390;2022-12-24T06:58:50;100066.47;;;8.73;88.22
64086;BME280;50333;47.436;21.390;2022-12-24T07:01:19;100049.94;;;9.15;86.69
64086;BME280;50333;47.436;21.390;2022-12-24T07:03:48;100063.28;;;8.50;89.68
64086;BME280;50333;47.436;21.390;2022-12-24T07:06:23;100066.78;;;8.86;87.73
64086;BME280;50333;47.436;21.390;2022-12-24T07:08:52;100066.50;;;8.83;88.38
64086;BME280;50333;47.436;21.390;2022-12-24T07:11:20;100060.31;;;8.99;87.18
64086;BME280;50333;47.436;21.390;2022-12-24T07:13:49;100072.78;;;8.97;87.03
64086;BME280;50333;47.436;21.390;2022-12-24T07:16:17;100062.88;;;8.89;87.05
64086;BME280;50333;47.436;21.390;2022-12-24T07:18:45;100051.59;;;8.58;89.62
64086;BME280;50333;47.436;21.390;2022-12-24T07:21:13;100055.81;;;8.64;89.50
64086;BME280;50333;47.436;21.390;2022-12-24T07:23:41;100058.41;;;8.64;88.62
64086;BME280;50333;47.436;21.390;2022-12-24T07:26:09;100064.72;;;8.89;87.04
64086;BME280;50333;47.436;21.390;2022-12-24T07:28:37;100070.13;;;8.77;87.93
64086;BME280;50333;47.436;21.390;2022-12-24T07:31:05;100055.88;;;9.05;86.96
64086;BME280;50333;47.436;21.390;2022-12-24T07:33:33;100057.97;;;9.08;86.62
64086;BME280;50333;47.436;21.390;2022-12-24T07:36:03;100069.56;;;8.64;88.53
64086;BME280;50333;47.436;21.390;2022-12-24T07:38:32;100061.78;;;8.64;88.66
64086;BME280;50333;47.436;21.390;2022-12-24T07:41:00;100068.84;;;8.90;87.06
64086;BME280;50333;47.436;21.390;2022-12-24T07:43:28;100087.59;;;8.86;87.39
64086;BME280;50333;47.436;21.390;2022-12-24T07:45:56;100091.00;;;9.02;86.79
64086;BME280;50333;47.436;21.390;2022-12-24T07:48:26;100088.09;;;8.83;87.58
64086;BME280;50333;47.436;21.390;2022-12-24T07:50:55;100082.38;;;8.92;86.53
64086;BME280;50333;47.436;21.390;2022-12-24T07:53:24;100085.00;;;9.07;86.59
64086;BME280;50333;47.436;21.390;2022-12-24T07:55:52;100077.87;;;8.66;88.83
64086;BME280;50333;47.436;21.390;2022-12-24T07:58:20;100079.47;;;8.67;89.01
64086;BME280;50333;47.436;21.390;2022-12-24T08:00:54;100080.28;;;8.78;88.35
64086;BME280;50333;47.436;21.390;2022-12-24T08:03:22;100083.66;;;8.84;88.48
64086;BME280;50333;47.436;21.390;2022-12-24T08:05:50;100086.28;;;8.89;87.97
64086;BME280;50333;47.436;21.390;2022-12-24T08:08:21;100096.97;;;8.98;87.99
64086;BME280;50333;47.436;21.390;2022-12-24T08:10:49;100094.37;;;9.03;87.27
64086;BME280;50333;47.436;21.390;2022-12-24T08:13:17;100088.09;;;8.83;88.77
64086;BME280;50333;47.436;21.390;2022-12-24T08:15:45;100086.25;;;8.79;88.36
64086;BME280;50333;47.436;21.390;2022-12-24T08:18:13;100089.38;;;8.81;88.35
64086;BME280;50333;47.436;21.390;2022-12-24T08:20:41;100082.44;;;9.22;86.87
64086;BME280;50333;47.436;21.390;2022-12-24T08:23:09;100098.81;;;9.08;87.52
64086;BME280;50333;47.436;21.390;2022-12-24T08:25:37;100101.97;;;9.20;86.39
64086;BME280;50333;47.436;21.390;2022-12-24T08:28:08;100104.56;;;9.25;85.85
64086;BME280;50333;47.436;21.390;2022-12-24T08:30:37;100107.41;;;9.13;85.51
64086;BME280;50333;47.436;21.390;2022-12-24T08:33:06;100093.63;;;9.13;86.04
64086;BME280;50333;47.436;21.390;2022-12-24T08:35:34;100094.13;;;9.04;86.41
64086;BME280;50333;47.436;21.390;2022-12-24T08:38:02;100103.44;;;8.85;87.68
64086;BME280;50333;47.436;21.390;2022-12-24T08:40:31;100109.75;;;9.15;86.62
64086;BME280;50333;47.436;21.390;2022-12-24T08:43:00;100109.25;;;9.18;86.20
64086;BME280;50333;47.436;21.390;2022-12-24T08:45:29;100108.22;;;9.29;85.64
64086;BME280;50333;47.436;21.390;2022-12-24T08:48:08;100110.31;;;9.32;85.52
64086;BME280;50333;47.436;21.390;2022-12-24T08:50:40;100118.84;;;9.22;85.23
64086;BME280;50333;47.436;21.390;2022-12-24T08:53:09;100110.78;;;9.19;85.83
64086;BME280;50333;47.436;21.390;2022-12-24T08:55:37;100124.19;;;8.80;88.62
64086;BME280;50333;47.436;21.390;2022-12-24T08:58:06;100133.91;;;9.05;87.41
64086;BME280;50333;47.436;21.390;2022-12-24T09:00:34;100137.00;;;9.02;87.39
64086;BME280;50333;47.436;21.390;2022-12-24T09:03:02;100116.78;;;9.35;85.88
64086;BME280;50333;47.436;21.390;2022-12-24T09:05:30;100137.84;;;9.18;87.00
64086;BME280;50333;47.436;21.390;2022-12-24T09:07:57;100129.50;;;9.16;86.83
64086;BME280;50333;47.436;21.390;2022-12-24T09:10:26;100124.09;;;9.33;85.58
64086;BME280;50333;47.436;21.390;2022-12-24T09:12:53;100134.25;;;9.39;85.32
64086;BME280;50333;47.436;21.390;2022-12-24T09:15:21;100133.22;;;9.56;84.59
64086;BME280;50333;47.436;21.390;2022-12-24T09:17:49;100137.91;;;9.64;84.11
64086;BME280;50333;47.436;21.390;2022-12-24T09:20:18;100134.28;;;9.65;84.20
64086;BME280;50333;47.436;21.390;2022-12-24T09:22:46;100130.59;;;9.56;84.70
64086;BME280;50333;47.436;21.390;2022-12-24T09:25:14;100141.00;;;9.56;84.41
64086;BME280;50333;47.436;21.390;2022-12-24T09:27:42;100146.22;;;9.56;84.87
64086;BME280;50333;47.436;21.390;2022-12-24T09:30:10;100157.66;;;9.44;85.21
64086;BME280;50333;47.436;21.390;2022-12-24T09:32:41;100153.00;;;9.67;83.90
64086;BME280;50333;47.436;21.390;2022-12-24T09:35:28;100157.16;;;9.63;84.11
64086;BME280;50333;47.436;21.390;2022-12-24T09:37:56;100159.00;;;9.73;83.38
64086;BME280;50333;47.436;21.390;2022-12-24T09:40:38;100155.63;;;9.72;83.71
64086;BME280;50333;47.436;21.390;2022-12-24T09:43:32;100154.31;;;9.85;83.02
64086;BME280;50333;47.436;21.390;2022-12-24T09:49:22;100166.72;;;9.21;85.06
64086;BME280;50333;47.436;21.390;2022-12-24T09:52:12;100176.41;;;9.47;84.03
64086;BME280;50333;47.436;21.390;2022-12-24T09:54:49;100183.47;;;9.67;83.43
64086;BME280;50333;47.436;21.390;2022-12-24T09:57:27;100187.13;;;9.86;83.01
64086;BME280;50333;47.436;21.390;2022-12-24T09:59:56;100191.00;;;9.78;82.96
64086;BME280;50333;47.436;21.390;2022-12-24T10:02:24;100184.78;;;9.85;83.23
64086;BME280;50333;47.436;21.390;2022-12-24T10:04:53;100191.53;;;9.86;82.82
64086;BME280;50333;47.436;21.390;2022-12-24T10:07:35;100206.09;;;9.71;83.24
64086;BME280;50333;47.436;21.390;2022-12-24T10:15:36;100204.03;;;9.94;82.70
64086;BME280;50333;47.436;21.390;2022-12-24T10:18:34;100211.34;;;9.92;82.15
64086;BME280;50333;47.436;21.390;2022-12-24T10:21:14;100208.50;;;9.98;82.29
64086;BME280;50333;47.436;21.390;2022-12-24T10:23:50;100205.38;;;10.07;81.79
64086;BME280;50333;47.436;21.390;2022-12-24T10:26:30;100209.28;;;10.14;81.30
64086;BME280;50333;47.436;21.390;2022-12-24T10:29:05;100201.44;;;10.25;81.09
64086;BME280;50333;47.436;21.390;2022-12-24T10:31:36;100197.28;;;10.18;81.18
64086;BME280;50333;47.436;21.390;2022-12-24T10:34:14;100204.81;;;9.99;82.32
64086;BME280;50333;47.436;21.390;2022-12-24T10:36:44;100197.81;;;9.85;82.16
64086;BME280;50333;47.436;21.390;2022-12-24T10:39:17;100203.03;;;10.00;82.03
64086;BME280;50333;47.436;21.390;2022-12-24T10:41:50;100207.97;;;10.07;82.03
64086;BME280;50333;47.436;21.390;2022-12-24T10:44:21;100205.63;;;10.00;82.53
64086;BME280;50333;47.436;21.390;2022-12-24T10:46:50;100198.84;;;10.09;81.98
64086;BME280;50333;47.436;21.390;2022-12-24T10:49:38;100200.41;;;10.05;81.44
64086;BME280;50333;47.436;21.390;2022-12-24T10:52:14;100192.06;;;10.18;81.20
64086;BME280;50333;47.436;21.390;2022-12-24T10:57:33;100199.09;;;10.28;80.26
64086;BME280;50333;47.436;21.390;2022-12-24T11:00:02;100192.84;;;10.40;79.68
64086;BME280;50333;47.436;21.390;2022-12-24T11:02:33;100205.34;;;10.22;80.26
64086;BME280;50333;47.436;21.390;2022-12-24T11:05:26;100215.00;;;10.37;80.00
64086;BME280;50333;47.436;21.390;2022-12-24T11:08:04;100207.72;;;10.39;80.14
64086;BME280;50333;47.436;21.390;2022-12-24T11:10:39;100209.28;;;10.35;80.45
64086;BME280;50333;47.436;21.390;2022-12-24T11:13:23;100216.03;;;10.36;80.39
64086;BME280;50333;47.436;21.390;2022-12-24T11:16:27;100210.31;;;10.44;80.18
64086;BME280;50333;47.436;21.390;2022-12-24T11:19:01;100209.25;;;10.30;80.33
64086;BME280;50333;47.436;21.390;2022-12-24T11:21:33;100209.78;;;10.42;79.89
64086;BME280;50333;47.436;21.390;2022-12-24T11:26:40;100221.25;;;10.46;79.84
64086;BME280;50333;47.436;21.390;2022-12-24T11:29:23;100213.44;;;10.41;80.02
64086;BME280;50333;47.436;21.390;2022-12-24T11:31:51;100220.47;;;10.35;80.00
64086;BME280;50333;47.436;21.390;2022-12-24T11:34:36;100223.59;;;10.43;80.31
64086;BME280;50333;47.436;21.390;2022-12-24T11:37:15;100220.75;;;10.39;80.51
64086;BME280;50333;47.436;21.390;2022-12-24T11:40:03;100226.19;;;10.22;80.83
64086;BME280;50333;47.436;21.390;2022-12-24T11:42:33;100222.28;;;10.30;81.03
64086;BME280;50333;47.436;21.390;2022-12-24T11:45:27;100231.13;;;10.29;81.10
64086;BME280;50333;47.436;21.390;2022-12-24T11:47:54;100225.94;;;9.98;82.40
64086;BME280;50333;47.436;21.390;2022-12-24T11:50:33;100234.25;;;10.31;81.40
64086;BME280;50333;47.436;21.390;2022-12-24T11:58:05;100236.87;;;10.41;81.26
64086;BME280;50333;47.436;21.390;2022-12-24T12:00:40;100250.47;;;10.38;81.22
64086;BME280;50333;47.436;21.390;2022-12-24T12:03:31;100251.97;;;10.24;81.26
64086;BME280;50333;47.436;21.390;2022-12-24T12:06:04;100239.50;;;10.46;80.47
64086;BME280;50333;47.436;21.390;2022-12-24T12:08:34;100242.88;;;10.57;79.87
64086;BME280;50333;47.436;21.390;2022-12-24T12:11:11;100253.00;;;10.79;78.86
64086;BME280;50333;47.436;21.390;2022-12-24T12:13:43;100256.69;;;10.73;78.31
64086;BME280;50333;47.436;21.390;2022-12-24T12:16:27;100252.50;;;10.72;78.09
64086;BME280;50333;47.436;21.390;2022-12-24T12:19:00;100255.62;;;10.59;78.30
64086;BME280;50333;47.436;21.390;2022-12-24T12:21:36;100252.50;;;10.77;77.62
64086;BME280;50333;47.436;21.390;2022-12-24T12:24:12;100259.78;;;10.75;77.79
64086;BME280;50333;47.436;21.390;2022-12-24T12:26:42;100253.31;;;10.47;78.48
64086;BME280;50333;47.436;21.390;2022-12-24T12:29:31;100253.00;;;10.69;78.03
64086;BME280;50333;47.436;21.390;2022-12-24T12:32:04;100264.53;;;10.32;79.70
64086;BME280;50333;47.436;21.390;2022-12-24T12:37:11;100259.28;;;10.73;78.04
64086;BME280;50333;47.436;21.390;2022-12-24T12:39:42;100262.44;;;10.49;78.93
64086;BME280;50333;47.436;21.390;2022-12-24T12:44:58;100269.47;;;10.59;78.61
64086;BME280;50333;47.436;21.390;2022-12-24T12:50:57;100272.84;;;10.54;78.52
64086;BME280;50333;47.436;21.390;2022-12-24T12:56:35;100275.94;;;10.26;79.34
64086;BME280;50333;47.436;21.390;2022-12-24T13:21:33;100289.50;;;10.17;80.04
64086;BME280;50333;47.436;21.390;2022-12-24T13:24:28;100283.47;;;9.91;80.82
64086;BME280;50333;47.436;21.390;2022-12-24T13:27:27;100294.59;;;9.66;82.25
64086;BME280;50333;47.436;21.390;2022-12-24T13:30:00;100287.47;;;10.35;79.88
64086;BME280;50333;47.436;21.390;2022-12-24T13:32:47;100298.84;;;9.93;81.16
64086;BME280;50333;47.436;21.390;2022-12-24T13:37:46;100291.06;;;10.13;80.24
64086;BME280;50333;47.436;21.390;2022-12-24T13:40:25;100298.06;;;10.03;80.67
64086;BME280;50333;47.436;21.390;2022-12-24T13:50:42;100309.34;;;10.65;76.83
64086;BME280;50333;47.436;21.390;2022-12-24T13:53:20;100315.59;;;10.48;78.19
64086;BME280;50333;47.436;21.390;2022-12-24T13:58:32;100310.34;;;10.23;79.40
64086;BME280;50333;47.436;21.390;2022-12-24T14:01:05;100305.37;;;10.11;79.56
64086;BME280;50333;47.436;21.390;2022-12-24T14:03:48;100298.75;;;9.57;82.45
64086;BME280;50333;47.436;21.390;2022-12-24T14:06:26;100306.56;;;9.04;85.82
64086;BME280;50333;47.436;21.390;2022-12-24T14:08:57;100317.53;;;9.69;82.73
64086;BME280;50333;47.436;21.390;2022-12-24T14:16:58;100323.94;;;10.45;77.62
64086;BME280;50333;47.436;21.390;2022-12-24T14:19:48;100329.69;;;10.52;76.65
64086;BME280;50333;47.436;21.390;2022-12-24T14:27:37;100346.34;;;10.36;76.88
64086;BME280;50333;47.436;21.390;2022-12-24T14:32:37;100350.66;;;9.84;78.82
64086;BME280;50333;47.436;21.390;2022-12-24T14:37:34;100351.94;;;9.23;82.31
64086;BME280;50333;47.436;21.390;2022-12-24T14:40:03;100353.75;;;9.28;82.37
64086;BME280;50333;47.436;21.390;2022-12-24T14:46:03;100372.00;;;9.33;81.40
64086;BME280;50333;47.436;21.390;2022-12-24T14:48:55;100377.13;;;9.66;78.86
64086;BME280;50333;47.436;21.390;2022-12-24T14:51:48;100371.97;;;9.28;81.01
64086;BME280;50333;47.436;21.390;2022-12-24T14:54:34;100376.75;;;9.41;80.36
64086;BME280;50333;47.436;21.390;2022-12-24T14:59:46;100386.50;;;9.19;79.95
64086;BME280;50333;47.436;21.390;2022-12-24T15:02:49;100388.72;;;9.05;80.15
64086;BME280;50333;47.436;21.390;2022-12-24T15:05:26;100398.34;;;9.04;79.81